createdAt,value
2018-07-07T00:00:59.659Z,18.90
2018-07-07T00:03:27.810Z,18.80
2018-07-07T00:08:23.922Z,18.80
2018-07-07T00:13:23.962Z,18.80
2018-07-07T00:15:52.133Z,18.80
2018-07-07T00:18:20.386Z,18.80
2018-07-07T00:20:48.579Z,18.80
2018-07-07T00:23:16.715Z,18.80
2018-07-07T00:25:44.892Z,18.80
2018-07-07T00:28:13.269Z,18.80
2018-07-07T00:30:41.412Z,18.80
2018-07-07T00:33:09.502Z,18.70
2018-07-07T00:35:37.621Z,18.70
2018-07-07T00:38:05.839Z,18.70
2018-07-07T00:40:34.003Z,18.60
2018-07-07T00:43:02.077Z,18.50
2018-07-07T00:45:30.216Z,18.50
2018-07-07T00:47:58.286Z,18.40
2018-07-07T00:50:26.407Z,18.40
2018-07-07T00:52:54.535Z,18.40
2018-07-07T00:55:22.678Z,18.40
2018-07-07T00:57:50.816Z,18.40
2018-07-07T01:00:19.030Z,18.40
2018-07-07T01:02:47.150Z,18.40
2018-07-07T01:05:26.285Z,18.40
2018-07-07T01:07:54.442Z,18.40
2018-07-07T01:10:22.490Z,18.30
2018-07-07T01:12:50.609Z,18.30
2018-07-07T01:15:18.683Z,18.20
2018-07-07T01:17:46.838Z,18.20
2018-07-07T01:20:15.023Z,18.20
2018-07-07T01:22:43.106Z,18.20
2018-07-07T01:25:11.253Z,18.10
2018-07-07T01:27:39.316Z,18.10
2018-07-07T01:30:07.404Z,18.10
2018-07-07T01:32:35.489Z,18.10
2018-07-07T01:35:03.614Z,18.00
2018-07-07T01:37:31.740Z,18.00
2018-07-07T01:39:59.812Z,18.00
2018-07-07T01:42:27.971Z,17.90
2018-07-07T01:44:56.110Z,18.00
2018-07-07T01:47:24.297Z,18.00
2018-07-07T01:49:52.417Z,18.00
2018-07-07T01:52:20.576Z,17.90
2018-07-07T01:54:48.660Z,17.90
2018-07-07T01:57:16.716Z,18.00
2018-07-07T01:59:44.900Z,18.00
2018-07-07T02:02:13.012Z,18.00
2018-07-07T02:04:41.112Z,18.00
2018-07-07T02:07:09.208Z,18.00
2018-07-07T02:09:37.337Z,18.10
2018-07-07T02:12:05.440Z,18.10
2018-07-07T02:14:33.545Z,18.10
2018-07-07T02:17:01.642Z,18.10
2018-07-07T02:19:29.786Z,18.10
2018-07-07T02:21:57.906Z,18.10
2018-07-07T02:24:26.168Z,18.00
2018-07-07T02:26:54.283Z,18.00
2018-07-07T02:29:22.456Z,18.10
2018-07-07T02:31:50.566Z,18.10
2018-07-07T02:34:18.762Z,18.10
2018-07-07T02:36:46.914Z,18.10
2018-07-07T02:39:15.097Z,18.00
2018-07-07T02:41:43.180Z,18.10
2018-07-07T02:44:11.293Z,18.00
2018-07-07T02:46:39.452Z,18.00
2018-07-07T02:49:07.539Z,18.00
2018-07-07T02:51:35.630Z,18.00
2018-07-07T02:54:03.811Z,18.00
2018-07-07T02:56:31.921Z,17.90
2018-07-07T02:59:00.027Z,17.90
2018-07-07T03:01:28.112Z,17.80
2018-07-07T03:03:56.269Z,17.80
2018-07-07T03:06:24.355Z,17.80
2018-07-07T03:08:52.472Z,17.80
2018-07-07T03:11:20.614Z,17.80
2018-07-07T03:13:48.777Z,17.80
2018-07-07T03:21:12.689Z,17.70
2018-07-07T03:23:40.848Z,17.70
2018-07-07T03:26:09.044Z,17.70
2018-07-07T03:28:37.156Z,17.60
2018-07-07T03:31:05.315Z,17.60
2018-07-07T03:33:33.422Z,17.60
2018-07-07T03:36:01.580Z,17.60
2018-07-07T03:38:29.684Z,17.60
2018-07-07T03:40:57.811Z,17.60
2018-07-07T03:43:25.938Z,17.60
2018-07-07T03:45:54.083Z,17.60
2018-07-07T03:48:22.166Z,17.60
2018-07-07T03:50:50.311Z,17.60
2018-07-07T03:55:46.384Z,17.60
2018-07-07T04:00:49.296Z,17.60
2018-07-07T04:03:17.383Z,17.60
2018-07-07T04:05:45.488Z,17.60
2018-07-07T04:08:13.663Z,17.70
2018-07-07T04:13:09.665Z,17.80
2018-07-07T04:15:37.727Z,17.90
2018-07-07T04:18:06.076Z,17.80
2018-07-07T04:20:34.196Z,17.90
2018-07-07T04:25:30.246Z,18.00
2018-07-07T04:27:58.341Z,18.00
2018-07-07T04:30:26.460Z,18.10
2018-07-07T04:32:54.538Z,18.20
2018-07-07T04:35:22.667Z,18.30
2018-07-07T04:37:50.765Z,18.40
2018-07-07T04:40:18.892Z,18.50
2018-07-07T04:42:47.038Z,18.70
2018-07-07T04:45:15.137Z,18.80
2018-07-07T04:47:43.278Z,19.00
2018-07-07T04:50:11.452Z,19.20
2018-07-07T04:52:39.656Z,19.30
2018-07-07T04:55:07.781Z,19.40
2018-07-07T04:57:35.903Z,19.50
2018-07-07T05:00:04.660Z,19.70
2018-07-07T05:02:32.863Z,19.80
2018-07-07T05:05:00.977Z,19.90
2018-07-07T05:07:29.490Z,20.00
2018-07-07T05:09:57.789Z,20.10
2018-07-07T05:12:25.881Z,20.20
2018-07-07T05:14:54.293Z,20.30
2018-07-07T05:17:22.517Z,20.40
2018-07-07T05:22:18.501Z,20.60
2018-07-07T05:24:46.754Z,20.70
2018-07-07T05:27:14.846Z,20.80
2018-07-07T05:32:10.920Z,21.10
2018-07-07T05:34:39.209Z,21.30
2018-07-07T05:37:07.367Z,21.40
2018-07-07T05:39:35.723Z,21.40
2018-07-07T05:42:04.421Z,21.40
2018-07-07T05:44:32.557Z,21.40
2018-07-07T05:47:00.753Z,21.40
2018-07-07T05:49:29.555Z,21.50
2018-07-07T05:51:57.690Z,21.50
2018-07-07T05:54:26.090Z,21.60
2018-07-07T05:56:54.235Z,21.60
2018-07-07T05:59:22.294Z,21.50
2018-07-07T06:01:50.466Z,21.40
2018-07-07T06:06:46.607Z,21.30
2018-07-07T06:09:14.823Z,21.30
2018-07-07T06:11:42.936Z,21.30
2018-07-07T06:14:11.090Z,21.30
2018-07-07T06:16:39.341Z,21.40
2018-07-07T06:19:07.453Z,21.60
2018-07-07T06:21:35.560Z,21.60
2018-07-07T06:24:03.754Z,21.70
2018-07-07T06:26:31.926Z,21.90
2018-07-07T06:29:00.124Z,22.00
2018-07-07T06:33:56.757Z,22.50
2018-07-07T06:36:24.932Z,22.70
2018-07-07T06:38:53.080Z,22.90
2018-07-07T06:41:21.675Z,23.00
2018-07-07T06:43:49.800Z,23.10
2018-07-07T06:46:17.941Z,23.20
2018-07-07T06:48:46.097Z,23.30
2018-07-07T06:51:14.312Z,23.20
2018-07-07T06:56:10.448Z,23.10
2018-07-07T06:58:38.614Z,23.10
2018-07-07T07:01:06.832Z,23.10
2018-07-07T07:03:35.033Z,23.00
2018-07-07T07:06:03.326Z,23.10
2018-07-07T07:08:31.545Z,23.00
2018-07-07T07:10:59.674Z,22.90
2018-07-07T07:13:27.938Z,22.90
2018-07-07T07:15:56.242Z,22.80
2018-07-07T07:18:24.580Z,22.80
2018-07-07T07:20:52.865Z,22.90
2018-07-07T07:23:21.205Z,22.80
2018-07-07T07:25:49.534Z,22.80
2018-07-07T07:28:17.800Z,22.70
2018-07-07T07:30:46.056Z,22.70
2018-07-07T07:33:16.220Z,22.60
2018-07-07T07:35:47.009Z,22.70
2018-07-07T07:38:19.000Z,23.00
2018-07-07T07:40:58.462Z,23.10
2018-07-07T07:43:31.278Z,23.10
2018-07-07T07:46:04.398Z,23.30
2018-07-07T07:48:43.933Z,23.40
2018-07-07T07:51:17.253Z,23.40
2018-07-07T07:53:50.832Z,23.50
2018-07-07T07:56:24.574Z,23.60
2018-07-07T07:59:03.781Z,23.60
2018-07-07T08:01:37.630Z,23.80
2018-07-07T08:04:08.573Z,24.20
2018-07-07T08:06:42.060Z,24.30
2018-07-07T08:09:14.620Z,24.30
2018-07-07T08:11:47.256Z,24.50
2018-07-07T08:14:23.045Z,24.70
2018-07-07T08:16:55.176Z,24.70
2018-07-07T08:19:26.637Z,24.80
2018-07-07T08:21:56.738Z,24.50
2018-07-07T08:24:32.037Z,24.50
2018-07-07T08:27:03.795Z,24.70
2018-07-07T08:29:37.066Z,25.00
2018-07-07T08:32:12.688Z,25.40
2018-07-07T08:34:44.283Z,25.30
2018-07-07T08:37:18.920Z,25.30
2018-07-07T08:39:52.203Z,25.60
2018-07-07T08:42:26.624Z,25.70
2018-07-07T08:44:59.482Z,26.00
2018-07-07T08:47:35.413Z,26.10
2018-07-07T08:50:08.848Z,26.30
2018-07-07T08:52:39.884Z,26.50
2018-07-07T08:55:12.572Z,26.50
2018-07-07T08:57:43.064Z,26.50
2018-07-07T09:00:17.475Z,26.40
2018-07-07T09:02:48.677Z,26.50
2018-07-07T09:05:25.579Z,26.60
2018-07-07T09:07:56.298Z,26.90
2018-07-07T09:10:35.822Z,27.10
2018-07-07T09:13:07.248Z,26.70
2018-07-07T09:15:41.158Z,26.90
2018-07-07T09:18:11.672Z,27.00
2018-07-07T09:20:44.490Z,27.10
2018-07-07T09:23:15.025Z,27.20
2018-07-07T09:25:47.775Z,27.40
2018-07-07T09:28:18.905Z,27.20
2018-07-07T09:30:53.550Z,26.90
2018-07-07T09:33:29.074Z,26.20
2018-07-07T09:35:59.472Z,26.70
2018-07-07T09:38:29.617Z,27.20
2018-07-07T09:41:01.512Z,27.40
2018-07-07T09:43:32.035Z,27.50
2018-07-07T09:46:04.202Z,27.50
2018-07-07T09:48:40.128Z,27.70
2018-07-07T09:51:14.691Z,27.70
2018-07-07T09:53:45.894Z,27.70
2018-07-07T09:56:16.946Z,27.20
2018-07-07T09:58:47.584Z,27.60
2018-07-07T10:01:21.319Z,27.80
2018-07-07T10:04:01.621Z,28.10
2018-07-07T10:06:30.436Z,28.00
2018-07-07T10:08:59.035Z,28.30
2018-07-07T10:11:28.976Z,28.10
2018-07-07T10:13:58.525Z,28.40
2018-07-07T10:16:27.674Z,28.50
2018-07-07T10:18:56.174Z,28.50
2018-07-07T10:23:55.340Z,28.50
2018-07-07T10:26:23.956Z,28.40
2018-07-07T10:28:52.652Z,28.30
2018-07-07T10:31:21.468Z,28.20
2018-07-07T10:33:49.949Z,28.10
2018-07-07T10:36:18.465Z,28.00
2018-07-07T10:38:46.888Z,28.00
2018-07-07T10:43:44.162Z,28.40
2018-07-07T10:46:14.040Z,28.40
2018-07-07T10:48:43.167Z,28.50
2018-07-07T10:51:11.796Z,28.60
2018-07-07T10:53:40.521Z,28.60
2018-07-07T10:56:09.150Z,28.70
2018-07-07T10:58:38.582Z,28.70
2018-07-07T11:01:07.888Z,29.00
2018-07-07T11:03:36.654Z,28.90
2018-07-07T11:06:05.301Z,29.10
2018-07-07T11:08:34.082Z,29.10
2018-07-07T11:11:02.878Z,28.80
2018-07-07T11:13:31.384Z,29.00
2018-07-07T11:15:59.716Z,29.30
2018-07-07T11:18:28.087Z,29.20
2018-07-07T11:20:56.502Z,29.20
2018-07-07T11:23:24.853Z,29.30
2018-07-07T11:25:53.220Z,29.10
2018-07-07T11:28:21.606Z,28.90
2018-07-07T11:30:50.441Z,29.00
2018-07-07T11:33:21.716Z,29.00
2018-07-07T11:35:51.801Z,28.80
2018-07-07T11:40:48.597Z,27.60
2018-07-07T11:43:17.021Z,28.00
2018-07-07T11:45:45.781Z,28.30
2018-07-07T11:48:15.417Z,28.40
2018-07-07T11:50:44.165Z,28.70
2018-07-07T11:53:12.948Z,28.60
2018-07-07T11:55:41.598Z,28.50
2018-07-07T11:58:10.622Z,28.40
2018-07-07T12:00:39.011Z,28.40
2018-07-07T12:03:07.591Z,28.20
2018-07-07T12:08:13.872Z,28.10
2018-07-07T12:10:32.695Z,28.10
2018-07-07T12:13:01.092Z,28.40
2018-07-07T12:15:29.544Z,28.50
2018-07-07T12:20:25.968Z,28.50
2018-07-07T12:22:54.320Z,28.60
2018-07-07T12:25:22.716Z,28.70
2018-07-07T12:27:51.169Z,28.50
2018-07-07T12:30:19.587Z,28.20
2018-07-07T12:32:48.032Z,28.10
2018-07-07T12:35:16.399Z,28.00
2018-07-07T12:37:44.726Z,28.10
2018-07-07T12:40:13.080Z,28.10
2018-07-07T12:42:42.074Z,28.00
2018-07-07T12:45:10.471Z,28.10
2018-07-07T12:47:38.776Z,28.00
2018-07-07T12:50:07.278Z,28.10
2018-07-07T12:52:35.893Z,28.00
2018-07-07T12:55:04.330Z,27.90
2018-07-07T12:57:32.813Z,28.10
2018-07-07T13:00:01.228Z,27.70
2018-07-07T13:02:29.642Z,27.80
2018-07-07T13:04:57.938Z,28.00
2018-07-07T13:07:27.251Z,28.00
2018-07-07T13:09:56.037Z,28.10
2018-07-07T13:12:25.185Z,28.20
2018-07-07T13:14:55.338Z,28.30
2018-07-07T13:17:23.888Z,28.30
2018-07-07T13:19:52.449Z,28.30
2018-07-07T13:22:21.091Z,28.10
2018-07-07T13:24:49.801Z,27.90
2018-07-07T13:29:48.546Z,27.90
2018-07-07T13:32:16.877Z,27.90
2018-07-07T13:34:45.208Z,28.00
2018-07-07T13:37:14.768Z,28.20
2018-07-07T13:39:43.359Z,28.20
2018-07-07T13:44:42.736Z,28.10
2018-07-07T13:49:40.425Z,27.80
2018-07-07T13:52:09.016Z,27.90
2018-07-07T13:54:40.138Z,27.80
2018-07-07T13:57:10.371Z,27.90
2018-07-07T13:59:38.983Z,27.70
2018-07-07T14:02:08.782Z,27.80
2018-07-07T14:04:37.367Z,27.70
2018-07-07T14:07:06.701Z,27.70
2018-07-07T14:12:05.370Z,28.00
2018-07-07T14:14:33.933Z,27.80
2018-07-07T14:17:03.811Z,27.70
2018-07-07T14:19:32.676Z,27.70
2018-07-07T14:24:29.249Z,27.70
2018-07-07T14:26:58.796Z,27.40
2018-07-07T14:29:28.762Z,27.30
2018-07-07T14:31:57.191Z,27.20
2018-07-07T14:34:25.983Z,27.10
2018-07-07T14:36:54.356Z,27.00
2018-07-07T14:42:04.264Z,27.00
2018-07-07T14:44:33.318Z,26.90
2018-07-07T14:47:02.917Z,26.70
2018-07-07T14:49:32.233Z,26.50
2018-07-07T14:52:01.574Z,26.50
2018-07-07T14:54:30.465Z,26.50
2018-07-07T14:57:00.388Z,26.70
2018-07-07T14:59:29.399Z,26.70
2018-07-07T15:01:57.727Z,26.80
2018-07-07T15:04:26.105Z,26.90
2018-07-07T15:06:54.448Z,26.90
2018-07-07T15:09:22.775Z,27.10
2018-07-07T15:11:56.587Z,26.90
2018-07-07T15:14:25.019Z,26.70
2018-07-07T15:16:53.428Z,26.50
2018-07-07T15:19:22.405Z,26.40
2018-07-07T15:21:50.869Z,26.50
2018-07-07T15:24:19.259Z,26.50
2018-07-07T15:29:15.603Z,26.60
2018-07-07T15:31:43.881Z,26.70
2018-07-07T15:34:12.139Z,26.80
2018-07-07T15:36:41.165Z,26.50
2018-07-07T15:39:09.410Z,26.40
2018-07-07T15:41:37.654Z,26.30
2018-07-07T15:44:06.096Z,26.30
2018-07-07T15:46:34.397Z,26.30
2018-07-07T15:49:02.790Z,26.30
2018-07-07T15:51:31.074Z,26.30
2018-07-07T15:53:59.274Z,26.30
2018-07-07T15:56:27.565Z,26.20
2018-07-07T16:01:26.654Z,26.30
2018-07-07T16:03:55.102Z,26.30
2018-07-07T16:06:23.355Z,26.20
2018-07-07T16:08:51.670Z,26.10
2018-07-07T16:11:20.032Z,26.10
2018-07-07T16:13:48.405Z,26.00
2018-07-07T16:16:16.631Z,26.00
2018-07-07T16:18:45.511Z,25.90
2018-07-07T16:21:13.818Z,25.90
2018-07-07T16:23:42.126Z,25.80
2018-07-07T16:26:10.417Z,25.70
2018-07-07T16:28:38.731Z,25.80
2018-07-07T16:31:07.077Z,25.70
2018-07-07T16:33:36.347Z,25.60
2018-07-07T16:36:05.327Z,25.60
2018-07-07T16:38:33.616Z,25.60
2018-07-07T16:41:02.069Z,25.60
2018-07-07T16:43:30.464Z,25.70
2018-07-07T16:45:58.782Z,25.60
2018-07-07T16:48:27.162Z,25.60
2018-07-07T16:50:56.722Z,25.60
2018-07-07T16:55:53.198Z,25.60
2018-07-07T16:58:21.660Z,25.50
2018-07-07T17:00:50.106Z,25.50
2018-07-07T17:03:18.498Z,25.40
2018-07-07T17:05:46.966Z,25.40
2018-07-07T17:08:15.357Z,25.30
2018-07-07T17:10:43.769Z,25.20
2018-07-07T17:13:12.112Z,25.10
2018-07-07T17:15:40.992Z,25.00
2018-07-07T17:18:10.088Z,24.90
2018-07-07T17:20:39.593Z,24.90
2018-07-07T17:23:08.071Z,24.80
2018-07-07T17:25:36.458Z,24.80
2018-07-07T17:30:32.849Z,24.60
2018-07-07T17:33:01.605Z,24.60
2018-07-07T17:35:31.751Z,24.50
2018-07-07T17:38:00.218Z,24.50
2018-07-07T17:40:28.634Z,24.40
2018-07-07T17:42:56.979Z,24.30
2018-07-07T17:45:25.362Z,24.20
2018-07-07T17:47:54.200Z,24.20
2018-07-07T17:50:22.553Z,24.10
2018-07-07T17:52:51.428Z,24.00
2018-07-07T17:55:19.731Z,23.90
2018-07-07T17:57:48.166Z,23.80
2018-07-07T18:00:17.613Z,23.70
2018-07-07T18:02:45.960Z,23.60
2018-07-07T18:05:14.244Z,23.50
2018-07-07T18:07:42.567Z,23.40
2018-07-07T18:10:10.835Z,23.40
2018-07-07T18:12:40.996Z,23.30
2018-07-07T18:15:09.364Z,23.30
2018-07-07T18:20:05.910Z,23.10
2018-07-07T18:22:34.246Z,23.10
2018-07-07T18:25:02.730Z,23.10
2018-07-07T18:27:31.009Z,23.00
2018-07-07T18:29:59.296Z,22.90
2018-07-07T18:32:28.800Z,22.80
2018-07-07T18:34:57.206Z,22.80
2018-07-07T18:37:25.638Z,22.70
2018-07-07T18:39:54.106Z,22.60
2018-07-07T18:42:22.390Z,22.50
2018-07-07T18:44:51.434Z,22.50
2018-07-07T18:47:19.727Z,22.50
2018-07-07T18:52:16.877Z,22.40
2018-07-07T18:54:45.380Z,22.40
2018-07-07T18:57:13.884Z,22.30
2018-07-07T18:59:43.576Z,22.30
2018-07-07T19:02:12.154Z,22.20
2018-07-07T19:04:42.412Z,22.10
2018-07-07T19:07:12.204Z,22.00
2018-07-07T19:09:43.812Z,22.00
2018-07-07T19:13:21.972Z,21.90
2018-07-07T19:19:45.461Z,21.60
2018-07-07T19:33:05.454Z,21.30
2018-07-07T19:36:26.329Z,21.30
2018-07-07T19:39:06.482Z,21.20
2018-07-07T19:42:11.952Z,21.10
2018-07-07T19:44:55.825Z,21.10
2018-07-07T19:48:08.469Z,21.00
2018-07-07T19:51:29.158Z,20.90
2018-07-07T19:55:20.104Z,20.90
2018-07-07T19:58:25.446Z,21.00
2018-07-07T20:01:28.084Z,20.90
2018-07-07T20:04:20.641Z,20.90
2018-07-07T20:13:51.868Z,20.90
